Terminal Aerodrome Forecast
Issued by NWS Sterling, VA

Current Version | Previous Version | Graphics & Text | Print | Product List | Glossary On
Versions: 1 2 3 4 5 6 7 8 9 10 11 12 13 14 15 16 17 18 19 20 21 22 23 24 25 26 27 28 29
000
FTUS41 KLWX 162200 AAC
TAFIAD
TAF AMD
KIAD 162246Z 1623/1724 21006KT 2SM -DZ VCSH OVC005
     FM170200 24004KT P6SM BKN009
     FM170400 25005KT P6SM BKN015
     FM170600 29011KT P6SM FEW060
     FM171400 29013G22KT P6SM SCT040
     FM172300 29009KT P6SM FEW250=

USA.gov is the U.S. government's official web portal to all federal, state and local government web resources and services.